Time;durP1;ratioP1;P1;durP2;ratioP2;P2;SDS_P1;SDS_P2;PMS_P1;PMS_P2;Temp;Humidity;BMP_temperature;BMP_pressure;BME280_temperature;BME280_humidity;BME280_pressure;Samples;Min_cycle;Max_cycle;Signal;HPM_P1;HPM_P2
2022/03/02 00:02:22;;;;;;;23.00;14.00;;;;;;;;;;5055260;28;20041;-67
2022/03/02 00:04:48;;;;;;;21.63;12.80;;;;;;;;;;5055043;28;20056;-68
2022/03/02 00:07:14;;;;;;;19.10;11.93;;;;;;;;;;5055285;28;20037;-72
2022/03/02 00:09:40;;;;;;;17.43;9.90;;;;;;;;;;5055162;28;20033;-67
2022/03/02 00:12:06;;;;;;;18.60;10.73;;;;;;;;;;5055251;28;20037;-73
2022/03/02 00:14:32;;;;;;;17.07;10.03;;;;;;;;;;5055147;28;20040;-67
2022/03/02 00:16:58;;;;;;;23.93;14.43;;;;;;;;;;5055077;28;20116;-72
2022/03/02 00:19:25;;;;;;;29.53;16.97;;;;;;;;;;5055129;28;20095;-73
2022/03/02 00:21:51;;;;;;;31.97;18.07;;;;;;;;;;5055041;28;20072;-73
2022/03/02 00:24:17;;;;;;;29.03;16.07;;;;;;;;;;5054871;28;20033;-67
2022/03/02 00:26:43;;;;;;;26.50;16.53;;;;;;;;;;5054817;28;20040;-67
2022/03/02 00:29:09;;;;;;;25.80;14.70;;;;;;;;;;5055019;28;20148;-67
2022/03/02 00:31:35;;;;;;;25.80;14.93;;;;;;;;;;5054963;28;20037;-73
2022/03/02 00:34:01;;;;;;;25.27;14.17;;;;;;;;;;5054731;28;20136;-67
2022/03/02 00:36:27;;;;;;;33.50;16.10;;;;;;;;;;5054860;28;20041;-67
2022/03/02 00:38:53;;;;;;;27.33;14.97;;;;;;;;;;5054688;28;20147;-67
2022/03/02 00:41:19;;;;;;;29.50;14.50;;;;;;;;;;5054610;28;20412;-73
2022/03/02 00:43:47;;;;;;;23.10;12.77;;;;;;;;;;5054746;28;20029;-67
2022/03/02 00:46:14;;;;;;;20.57;13.30;;;;;;;;;;5055043;28;20045;-67
2022/03/02 00:48:40;;;;;;;22.70;13.37;;;;;;;;;;5053296;28;20393;-72
2022/03/02 00:51:06;;;;;;;24.07;12.43;;;;;;;;;;5054699;28;20060;-67
2022/03/02 00:53:32;;;;;;;19.63;12.17;;;;;;;;;;5054627;28;20044;-67
2022/03/02 00:55:58;;;;;;;19.90;11.73;;;;;;;;;;5054719;28;20112;-67
2022/03/02 00:58:24;;;;;;;19.20;12.23;;;;;;;;;;5054183;28;20072;-67
2022/03/02 01:00:50;;;;;;;22.67;12.33;;;;;;;;;;5054682;28;20466;-67
2022/03/02 01:03:16;;;;;;;19.67;12.27;;;;;;;;;;5054567;28;20393;-67
2022/03/02 01:05:42;;;;;;;22.27;12.43;;;;;;;;;;5054156;28;20378;-68
2022/03/02 01:08:08;;;;;;;23.27;13.00;;;;;;;;;;5053995;28;20079;-67
2022/03/02 01:10:35;;;;;;;26.00;13.17;;;;;;;;;;5053937;28;20051;-67
2022/03/02 01:13:01;;;;;;;20.83;11.73;;;;;;;;;;5053779;28;20043;-72
2022/03/02 01:15:27;;;;;;;25.73;13.00;;;;;;;;;;5053792;28;20091;-68
2022/03/02 01:17:53;;;;;;;24.30;12.03;;;;;;;;;;5054029;28;20095;-66
2022/03/02 01:20:19;;;;;;;27.27;12.90;;;;;;;;;;5053613;28;20398;-72
2022/03/02 01:22:45;;;;;;;24.00;13.73;;;;;;;;;;5053779;28;20032;-67
2022/03/02 01:25:11;;;;;;;24.63;13.07;;;;;;;;;;5053873;28;20037;-68
2022/03/02 01:27:38;;;;;;;25.93;13.87;;;;;;;;;;5053921;28;20033;-67
2022/03/02 01:30:05;;;;;;;21.50;13.00;;;;;;;;;;5053729;28;20446;-67
2022/03/02 01:32:32;;;;;;;20.63;12.70;;;;;;;;;;5053528;28;20041;-67
2022/03/02 01:34:58;;;;;;;28.37;13.07;;;;;;;;;;5053420;28;20045;-67
2022/03/02 01:37:24;;;;;;;20.90;12.90;;;;;;;;;;5053717;28;20398;-67
2022/03/02 01:39:50;;;;;;;26.93;13.93;;;;;;;;;;5053563;28;20037;-67
2022/03/02 01:42:16;;;;;;;21.73;13.17;;;;;;;;;;5053461;28;20033;-67
2022/03/02 01:44:42;;;;;;;29.20;13.80;;;;;;;;;;5053339;28;20068;-67
2022/03/02 01:47:08;;;;;;;25.97;12.93;;;;;;;;;;5053389;28;20029;-68
2022/03/02 01:49:35;;;;;;;23.90;13.27;;;;;;;;;;5053352;28;20098;-67
2022/03/02 01:52:01;;;;;;;22.63;12.50;;;;;;;;;;5053356;28;20474;-73
2022/03/02 01:54:27;;;;;;;22.00;13.37;;;;;;;;;;5053179;28;20033;-67
2022/03/02 01:56:53;;;;;;;20.33;13.20;;;;;;;;;;5053470;28;20029;-68
2022/03/02 01:59:19;;;;;;;20.30;12.80;;;;;;;;;;5049872;28;20516;-68
2022/03/02 02:01:46;;;;;;;19.90;13.60;;;;;;;;;;5050937;28;20370;-70
2022/03/02 02:04:12;;;;;;;24.37;13.60;;;;;;;;;;5051236;28;20451;-68
2022/03/02 02:06:38;;;;;;;27.63;12.70;;;;;;;;;;5052882;28;20044;-68
2022/03/02 02:09:06;;;;;;;21.47;12.30;;;;;;;;;;5053049;28;20104;-73
2022/03/02 02:11:32;;;;;;;20.83;12.30;;;;;;;;;;5052758;28;20112;-67
2022/03/02 02:13:58;;;;;;;19.27;11.20;;;;;;;;;;5052389;28;20037;-74
2022/03/02 02:16:24;;;;;;;20.83;11.33;;;;;;;;;;5052803;28;20029;-68
2022/03/02 02:18:54;;;;;;;14.80;9.13;;;;;;;;;;5052795;28;20029;-67
2022/03/02 02:21:20;;;;;;;14.63;8.83;;;;;;;;;;5052159;28;20049;-67
2022/03/02 02:23:47;;;;;;;16.47;9.07;;;;;;;;;;5053205;28;20033;-72
2022/03/02 02:26:13;;;;;;;13.13;7.67;;;;;;;;;;5052729;28;20036;-68
2022/03/02 02:28:40;;;;;;;12.80;7.63;;;;;;;;;;5052504;28;20056;-67
2022/03/02 02:31:06;;;;;;;11.37;6.57;;;;;;;;;;5052799;28;20044;-67
2022/03/02 02:33:32;;;;;;;14.17;7.50;;;;;;;;;;5052591;28;20039;-67
2022/03/02 02:35:58;;;;;;;11.80;6.83;;;;;;;;;;5052230;28;20499;-67
2022/03/02 02:38:25;;;;;;;10.87;6.60;;;;;;;;;;5052455;28;20029;-68
2022/03/02 02:40:52;;;;;;;13.80;6.90;;;;;;;;;;5052467;28;20064;-67
2022/03/02 02:43:19;;;;;;;12.97;7.17;;;;;;;;;;5052740;28;20091;-67
2022/03/02 02:45:45;;;;;;;11.27;6.77;;;;;;;;;;5052531;28;20037;-67
2022/03/02 02:48:11;;;;;;;16.00;7.40;;;;;;;;;;5052365;28;20041;-68
2022/03/02 02:50:37;;;;;;;11.03;6.97;;;;;;;;;;5052632;28;20371;-67
2022/03/02 02:53:07;;;;;;;10.97;6.43;;;;;;;;;;5052668;28;20037;-68
2022/03/02 02:55:34;;;;;;;10.17;6.30;;;;;;;;;;5052563;28;20437;-68
2022/03/02 02:58:00;;;;;;;11.57;6.73;;;;;;;;;;5052123;28;20052;-73
2022/03/02 03:00:28;;;;;;;9.27;6.23;;;;;;;;;;5052330;28;20083;-68
2022/03/02 03:02:55;;;;;;;12.30;6.63;;;;;;;;;;5052558;28;20033;-67
2022/03/02 03:05:22;;;;;;;10.87;6.03;;;;;;;;;;5052484;28;20045;-68
2022/03/02 03:07:49;;;;;;;11.90;6.30;;;;;;;;;;5052276;28;20025;-71
2022/03/02 03:10:15;;;;;;;11.63;6.80;;;;;;;;;;5052103;28;20037;-67
2022/03/02 03:12:46;;;;;;;15.37;6.93;;;;;;;;;;5054874;28;20086;-74
2022/03/02 03:15:13;;;;;;;18.43;7.30;;;;;;;;;;5056378;28;20132;-68
2022/03/02 03:17:40;;;;;;;12.73;6.73;;;;;;;;;;5056303;28;20485;-68
2022/03/02 03:20:08;;;;;;;24.50;8.30;;;;;;;;;;5055909;28;20041;-68
2022/03/02 03:22:34;;;;;;;24.90;10.33;;;;;;;;;;5055928;28;20482;-68
2022/03/02 03:25:00;;;;;;;31.33;12.77;;;;;;;;;;5056175;28;20025;-72
2022/03/02 03:27:26;;;;;;;25.10;11.63;;;;;;;;;;5056166;28;20040;-68
2022/03/02 03:29:52;;;;;;;25.47;11.50;;;;;;;;;;5055812;28;20036;-73
2022/03/02 03:32:18;;;;;;;23.73;12.23;;;;;;;;;;5056033;28;20029;-67
2022/03/02 03:34:45;;;;;;;18.37;11.53;;;;;;;;;;5055674;28;20119;-67
2022/03/02 03:37:11;;;;;;;23.10;12.03;;;;;;;;;;5055728;28;20120;-68
2022/03/02 03:39:37;;;;;;;21.17;11.57;;;;;;;;;;5056046;28;20037;-68
2022/03/02 03:42:03;;;;;;;24.93;11.77;;;;;;;;;;5055887;28;20033;-67
2022/03/02 03:44:29;;;;;;;30.37;12.03;;;;;;;;;;5055992;28;20061;-68
2022/03/02 03:46:55;;;;;;;33.23;12.13;;;;;;;;;;5055666;28;20025;-73
2022/03/02 03:49:22;;;;;;;23.73;12.03;;;;;;;;;;5055509;28;20035;-68
2022/03/02 03:51:48;;;;;;;27.53;12.00;;;;;;;;;;5055671;28;20025;-68
2022/03/02 03:54:14;;;;;;;26.30;10.80;;;;;;;;;;5055565;28;20029;-67
2022/03/02 03:56:40;;;;;;;25.13;10.70;;;;;;;;;;5055887;28;20104;-67
2022/03/02 03:59:07;;;;;;;25.40;11.47;;;;;;;;;;5055357;28;20045;-67
2022/03/02 04:01:34;;;;;;;29.57;10.80;;;;;;;;;;5054966;28;20029;-67
2022/03/02 04:04:01;;;;;;;23.20;9.87;;;;;;;;;;5055208;28;20032;-69
2022/03/02 04:06:27;;;;;;;18.83;8.17;;;;;;;;;;5055145;28;20389;-72
2022/03/02 04:08:53;;;;;;;16.53;7.63;;;;;;;;;;5055399;28;20473;-72
2022/03/02 04:11:19;;;;;;;13.53;6.90;;;;;;;;;;5055210;28;20120;-75
2022/03/02 04:13:45;;;;;;;15.33;7.27;;;;;;;;;;5055237;28;20036;-73
2022/03/02 04:16:11;;;;;;;16.03;8.00;;;;;;;;;;5054721;28;20045;-68
2022/03/02 04:18:38;;;;;;;13.63;7.27;;;;;;;;;;5054955;28;20069;-73
2022/03/02 04:21:04;;;;;;;12.73;7.13;;;;;;;;;;5054900;28;20053;-72
2022/03/02 04:23:30;;;;;;;16.90;8.03;;;;;;;;;;5055070;28;20047;-71
2022/03/02 04:25:56;;;;;;;21.53;8.87;;;;;;;;;;5054923;28;20041;-67
2022/03/02 04:28:22;;;;;;;20.03;8.80;;;;;;;;;;5055225;28;20036;-68
2022/03/02 04:30:48;;;;;;;14.37;8.80;;;;;;;;;;5054891;28;20033;-68
2022/03/02 04:33:14;;;;;;;22.70;9.30;;;;;;;;;;5054774;28;20039;-69
2022/03/02 04:35:41;;;;;;;21.93;9.13;;;;;;;;;;5054679;28;20069;-67
2022/03/02 04:38:07;;;;;;;16.17;9.27;;;;;;;;;;5054859;28;20390;-74
2022/03/02 04:40:34;;;;;;;21.33;8.57;;;;;;;;;;5054107;28;20048;-69
2022/03/02 04:43:00;;;;;;;17.60;8.93;;;;;;;;;;5053821;28;20124;-72
2022/03/02 04:45:27;;;;;;;19.50;8.30;;;;;;;;;;5054159;28;20117;-75
2022/03/02 04:47:53;;;;;;;25.80;9.90;;;;;;;;;;5054171;28;20033;-69
2022/03/02 04:50:20;;;;;;;16.93;9.50;;;;;;;;;;5054175;28;20071;-72
2022/03/02 04:52:46;;;;;;;16.00;9.43;;;;;;;;;;5054389;28;20025;-72
2022/03/02 04:55:12;;;;;;;21.90;9.93;;;;;;;;;;5054099;28;20501;-67
2022/03/02 04:57:58;;;;;;;19.07;9.20;;;;;;;;;;5054281;28;20033;-72
2022/03/02 05:00:26;;;;;;;15.60;8.97;;;;;;;;;;5054428;28;20040;-68
2022/03/02 05:02:52;;;;;;;14.77;8.83;;;;;;;;;;5054136;28;20104;-69
2022/03/02 05:05:19;;;;;;;12.33;7.93;;;;;;;;;;5053735;28;20029;-68
2022/03/02 05:07:46;;;;;;;14.97;8.70;;;;;;;;;;5053893;28;20028;-74
2022/03/02 05:10:14;;;;;;;17.47;8.63;;;;;;;;;;5053932;28;20091;-67
2022/03/02 05:12:40;;;;;;;24.43;8.50;;;;;;;;;;5054304;28;20044;-72
2022/03/02 05:15:06;;;;;;;25.30;9.73;;;;;;;;;;5053762;28;20033;-68
2022/03/02 05:17:32;;;;;;;23.60;8.13;;;;;;;;;;5054069;28;20029;-67
2022/03/02 05:19:59;;;;;;;36.00;9.57;;;;;;;;;;5053557;28;20048;-68
2022/03/02 05:22:25;;;;;;;23.80;8.87;;;;;;;;;;5053687;28;20033;-67
2022/03/02 05:24:51;;;;;;;31.53;10.13;;;;;;;;;;5053550;28;20040;-68
2022/03/02 05:27:17;;;;;;;14.93;8.07;;;;;;;;;;5053821;28;20036;-68
2022/03/02 05:29:43;;;;;;;16.63;8.53;;;;;;;;;;5053798;28;20033;-67
2022/03/02 05:32:09;;;;;;;14.30;7.80;;;;;;;;;;5053596;28;20502;-72
2022/03/02 05:34:35;;;;;;;19.87;7.70;;;;;;;;;;5052907;28;20073;-68
2022/03/02 05:37:02;;;;;;;13.13;7.77;;;;;;;;;;5053477;28;20041;-67
2022/03/02 05:39:29;;;;;;;17.77;7.43;;;;;;;;;;5053391;28;20045;-73
2022/03/02 05:41:55;;;;;;;20.10;8.37;;;;;;;;;;5053293;28;20112;-70
2022/03/02 05:44:21;;;;;;;56.77;10.00;;;;;;;;;;5053273;28;20052;-67
2022/03/02 05:46:48;;;;;;;50.90;11.10;;;;;;;;;;5053373;28;20075;-73
2022/03/02 05:49:14;;;;;;;52.27;10.37;;;;;;;;;;5053420;28;20029;-71
2022/03/02 05:51:40;;;;;;;28.37;8.50;;;;;;;;;;5053221;28;20033;-72
2022/03/02 05:54:08;;;;;;;23.53;9.70;;;;;;;;;;5052739;28;20397;-67
2022/03/02 05:56:34;;;;;;;26.87;10.07;;;;;;;;;;5053171;28;20040;-69
2022/03/02 05:59:00;;;;;;;21.77;10.13;;;;;;;;;;5053067;28;20501;-73
2022/03/02 06:01:26;;;;;;;25.87;10.23;;;;;;;;;;5053110;28;20045;-71
2022/03/02 06:03:52;;;;;;;29.10;10.87;;;;;;;;;;5053018;28;20033;-68
2022/03/02 06:06:18;;;;;;;29.03;11.03;;;;;;;;;;5052793;28;20477;-69
2022/03/02 06:08:45;;;;;;;27.90;9.40;;;;;;;;;;5053012;28;20496;-71
2022/03/02 06:11:11;;;;;;;21.20;7.77;;;;;;;;;;5052832;28;20485;-72
2022/03/02 06:13:37;;;;;;;14.37;7.13;;;;;;;;;;5052899;28;20037;-68
2022/03/02 06:16:04;;;;;;;15.80;6.93;;;;;;;;;;5052928;28;20120;-69
2022/03/02 06:18:30;;;;;;;12.17;6.93;;;;;;;;;;5052926;28;20037;-79
2022/03/02 06:21:00;;;;;;;17.83;8.97;;;;;;;;;;5053168;28;20045;-69
2022/03/02 06:23:27;;;;;;;17.20;9.03;;;;;;;;;;5052472;28;20048;-79
2022/03/02 06:25:53;;;;;;;18.10;8.80;;;;;;;;;;5052441;28;20041;-69
2022/03/02 06:28:19;;;;;;;12.30;7.77;;;;;;;;;;5052615;28;20425;-69
2022/03/02 06:30:45;;;;;;;13.13;8.17;;;;;;;;;;5052634;28;20033;-79
2022/03/02 06:33:13;;;;;;;17.90;8.10;;;;;;;;;;5052647;28;20087;-73
2022/03/02 06:35:39;;;;;;;22.70;8.73;;;;;;;;;;5052333;28;20041;-69
2022/03/02 06:38:05;;;;;;;21.87;9.03;;;;;;;;;;5051989;28;20041;-79
2022/03/02 06:40:32;;;;;;;26.27;10.93;;;;;;;;;;5052133;28;20110;-68
2022/03/02 06:43:03;;;;;;;28.97;12.03;;;;;;;;;;5052630;28;20033;-77
2022/03/02 06:45:48;;;;;;;32.63;12.40;;;;;;;;;;5052562;28;20059;-70
2022/03/02 06:48:19;;;;;;;28.23;11.43;;;;;;;;;;5055961;28;20148;-69
2022/03/02 06:50:49;;;;;;;29.43;10.60;;;;;;;;;;5056608;28;20033;-70
2022/03/02 06:53:15;;;;;;;26.07;10.20;;;;;;;;;;5056565;28;20501;-70
2022/03/02 06:55:42;;;;;;;23.40;11.03;;;;;;;;;;5056909;28;20091;-69
2022/03/02 06:58:12;;;;;;;22.57;10.40;;;;;;;;;;5056618;28;20389;-71
2022/03/02 07:00:40;;;;;;;23.37;10.67;;;;;;;;;;5056483;28;20055;-74
2022/03/02 07:03:09;;;;;;;22.53;10.20;;;;;;;;;;5056285;28;20045;-79
2022/03/02 07:05:35;;;;;;;25.50;10.03;;;;;;;;;;5056240;28;20040;-74
2022/03/02 07:08:03;;;;;;;20.70;10.83;;;;;;;;;;5056398;28;20082;-72
2022/03/02 07:10:31;;;;;;;34.57;10.73;;;;;;;;;;5056415;28;20383;-76
2022/03/02 07:12:58;;;;;;;22.33;10.10;;;;;;;;;;5056411;28;20024;-68
2022/03/02 07:15:25;;;;;;;22.07;9.87;;;;;;;;;;5055894;28;20033;-69
2022/03/02 07:17:52;;;;;;;18.33;9.80;;;;;;;;;;5055859;28;20033;-76
2022/03/02 07:20:18;;;;;;;16.77;9.07;;;;;;;;;;5054409;28;20049;-69
2022/03/02 07:22:47;;;;;;;24.03;10.93;;;;;;;;;;5055238;28;20029;-69
2022/03/02 07:25:35;;;;;;;18.67;10.57;;;;;;;;;;5037833;28;20398;-69
2022/03/02 07:28:01;;;;;;;17.47;10.03;;;;;;;;;;5055547;28;20615;-68
2022/03/02 07:30:28;;;;;;;19.77;9.93;;;;;;;;;;5055651;28;20410;-65
2022/03/02 07:33:01;;;;;;;18.90;9.33;;;;;;;;;;5055836;28;20158;-65
2022/03/02 07:35:27;;;;;;;;;;;;;;;;;;5031282;28;20095;-68
2022/03/02 07:37:55;;;;;;;18.33;10.20;;;;;;;;;;5055872;28;19911;-65
2022/03/02 07:40:21;;;;;;;23.70;10.30;;;;;;;;;;5055496;28;20389;-65
2022/03/02 07:42:47;;;;;;;20.73;10.03;;;;;;;;;;5055302;28;20030;-66
2022/03/02 07:45:13;;;;;;;17.20;10.10;;;;;;;;;;5054937;28;20043;-66
2022/03/02 07:47:39;;;;;;;17.87;9.10;;;;;;;;;;5055125;28;20564;-65
2022/03/02 07:50:07;;;;;;;16.67;8.60;;;;;;;;;;5055766;28;20106;-65
2022/03/02 07:52:36;;;;;;;19.70;9.33;;;;;;;;;;5055729;28;20120;-70
2022/03/02 07:55:11;;;;;;;19.43;7.90;;;;;;;;;;5055363;28;20127;-66
2022/03/02 07:57:39;;;;;;;22.47;8.33;;;;;;;;;;5054615;28;20025;-66
2022/03/02 08:00:05;;;;;;;22.10;7.87;;;;;;;;;;5055325;28;20082;-71
2022/03/02 08:02:32;;;;;;;16.63;8.23;;;;;;;;;;5055520;28;20041;-65
2022/03/02 08:04:58;;;;;;;16.87;7.40;;;;;;;;;;5055021;28;20044;-65
2022/03/02 08:07:25;;;;;;;13.67;7.53;;;;;;;;;;5055075;28;20037;-65
2022/03/02 08:09:52;;;;;;;13.30;8.27;;;;;;;;;;5035897;28;20405;-65
2022/03/02 08:12:21;;;;;;;19.90;8.60;;;;;;;;;;5054887;28;20036;-65
2022/03/02 08:14:48;;;;;;;16.00;8.83;;;;;;;;;;5055164;28;20502;-65
2022/03/02 08:17:14;;;;;;;13.40;8.07;;;;;;;;;;5054883;28;20028;-66
2022/03/02 08:19:40;;;;;;;18.70;9.07;;;;;;;;;;5055166;28;20515;-66
2022/03/02 08:22:13;;;;;;;16.60;8.93;;;;;;;;;;5054250;28;20097;-65
2022/03/02 08:24:41;;;;;;;;;;;;;;;;;;5055331;28;20037;-65
2022/03/02 08:27:10;;;;;;;14.10;8.87;;;;;;;;;;5054896;28;19905;-65
2022/03/02 08:29:36;;;;;;;19.07;9.13;;;;;;;;;;5054935;28;20036;-65
2022/03/02 08:32:03;;;;;;;16.10;9.00;;;;;;;;;;5054796;28;20025;-65
2022/03/02 08:34:31;;;;;;;15.57;8.40;;;;;;;;;;5054917;28;20098;-65
2022/03/02 08:36:58;;;;;;;14.83;8.40;;;;;;;;;;5054812;28;20056;-65
2022/03/02 08:39:24;;;;;;;17.57;8.00;;;;;;;;;;5054888;28;20564;-65
2022/03/02 08:41:51;;;;;;;18.27;7.70;;;;;;;;;;5054831;28;20477;-65
2022/03/02 08:44:17;;;;;;;13.03;7.80;;;;;;;;;;5054422;28;20041;-72
2022/03/02 08:46:46;;;;;;;14.23;8.07;;;;;;;;;;5054589;28;20083;-65
2022/03/02 08:49:13;;;;;;;14.50;7.27;;;;;;;;;;5054185;28;20482;-65
2022/03/02 08:51:40;;;;;;;10.40;7.00;;;;;;;;;;5054408;28;20033;-65
2022/03/02 08:54:07;;;;;;;17.13;7.10;;;;;;;;;;5054877;28;20083;-65
2022/03/02 08:56:37;;;;;;;11.30;6.73;;;;;;;;;;5054322;28;20466;-65
2022/03/02 08:59:04;;;;;;;15.33;7.30;;;;;;;;;;5054555;28;20076;-65
2022/03/02 09:01:31;;;;;;;14.10;6.90;;;;;;;;;;5054234;28;20072;-65
2022/03/02 09:03:59;;;;;;;12.90;5.93;;;;;;;;;;5054480;28;20029;-65
2022/03/02 09:06:27;;;;;;;17.03;6.30;;;;;;;;;;5054399;28;20021;-72
2022/03/02 09:08:55;;;;;;;8.43;5.20;;;;;;;;;;5053750;28;20026;-65
2022/03/02 09:11:21;;;;;;;7.73;5.33;;;;;;;;;;5053609;28;20106;-66
2022/03/02 09:13:49;;;;;;;11.83;5.60;;;;;;;;;;5054123;28;20037;-65
2022/03/02 09:16:15;;;;;;;11.80;5.80;;;;;;;;;;5054425;28;20043;-65
2022/03/02 09:18:42;;;;;;;8.23;5.37;;;;;;;;;;5053668;28;20033;-66
2022/03/02 09:21:09;;;;;;;8.57;5.07;;;;;;;;;;5053296;28;20041;-67
2022/03/02 09:23:40;;;;;;;15.47;5.33;;;;;;;;;;5053576;28;20029;-66
2022/03/02 09:26:08;;;;;;;11.93;6.30;;;;;;;;;;5054565;28;20404;-66
2022/03/02 09:28:37;;;;;;;9.27;6.03;;;;;;;;;;5053999;28;20033;-65
2022/03/02 09:31:04;;;;;;;8.40;5.70;;;;;;;;;;5053689;28;20470;-65
2022/03/02 09:33:31;;;;;;;11.87;6.20;;;;;;;;;;5053802;28;20094;-65
2022/03/02 09:35:57;;;;;;;8.50;6.37;;;;;;;;;;5053888;28;20045;-64
2022/03/02 09:38:27;;;;;;;10.47;6.23;;;;;;;;;;5053966;28;20381;-65
2022/03/02 09:40:54;;;;;;;12.70;6.07;;;;;;;;;;5053702;28;20041;-65
2022/03/02 09:43:24;;;;;;;9.43;6.17;;;;;;;;;;5053639;28;20033;-65
2022/03/02 09:45:50;;;;;;;11.70;6.37;;;;;;;;;;5053394;28;20043;-66
2022/03/02 09:48:25;;;;;;;9.77;6.10;;;;;;;;;;5053797;28;20040;-65
2022/03/02 09:50:53;;;;;;;10.17;5.60;;;;;;;;;;5054013;28;20090;-65
2022/03/02 09:53:22;;;;;;;8.17;5.93;;;;;;;;;;5053420;28;20563;-66
2022/03/02 09:55:48;;;;;;;12.50;6.37;;;;;;;;;;5053366;28;20091;-65
2022/03/02 09:58:17;;;;;;;8.43;5.77;;;;;;;;;;5053299;28;20055;-65
2022/03/02 10:00:47;;;;;;;9.40;6.33;;;;;;;;;;5053434;28;20063;-66
2022/03/02 10:03:17;;;;;;;13.77;5.43;;;;;;;;;;5053535;28;20079;-65
2022/03/02 10:05:45;;;;;;;11.47;5.20;;;;;;;;;;5053157;28;20060;-66
2022/03/02 10:08:11;;;;;;;9.30;5.60;;;;;;;;;;5053220;28;20072;-66
2022/03/02 10:10:39;;;;;;;8.77;5.40;;;;;;;;;;5053287;28;20409;-66
2022/03/02 10:13:08;;;;;;;7.57;5.10;;;;;;;;;;5053298;28;20037;-66
2022/03/02 10:15:34;;;;;;;8.07;4.83;;;;;;;;;;5053558;28;20460;-66
2022/03/02 10:18:02;;;;;;;8.03;4.70;;;;;;;;;;5053507;28;20033;-66
2022/03/02 13:12:56;;;;;;;22.70;15.20;;;;;;;;;;5027704;28;20179;-78
2022/03/02 13:15:31;;;;;;;18.77;13.57;;;;;;;;;;5031539;28;20196;-65
2022/03/02 13:18:09;;;;;;;21.30;12.65;;;;;;;;;;5030986;28;20079;-66
2022/03/02 13:20:35;;;;;;;17.38;12.93;;;;;;;;;;5030884;28;20049;-65
2022/03/02 13:23:15;;;;;;;19.17;16.65;;;;;;;;;;5033535;28;20108;-65
2022/03/02 13:26:01;;;;;;;18.60;13.10;;;;;;;;;;5034064;28;20061;-65
2022/03/02 13:28:28;;;;;;;30.17;19.20;;;;;;;;;;5021465;28;20683;-66
2022/03/02 13:31:09;;;;;;;23.70;16.85;;;;;;;;;;5030831;28;20120;-66
2022/03/02 13:34:01;;;;;;;20.83;15.82;;;;;;;;;;5031514;28;20044;-79
2022/03/02 13:36:33;;;;;;;16.65;12.55;;;;;;;;;;5026696;28;20462;-66
2022/03/02 13:39:10;;;;;;;15.20;11.10;;;;;;;;;;5033340;28;20041;-66
2022/03/02 13:41:47;;;;;;;15.32;11.15;;;;;;;;;;5034003;28;20073;-66
2022/03/02 13:44:22;;;;;;;16.50;11.45;;;;;;;;;;5033578;28;20041;-65
2022/03/02 13:47:07;;;;;;;15.70;10.38;;;;;;;;;;5033258;28;20053;-66
2022/03/02 13:49:46;;;;;;;12.60;10.20;;;;;;;;;;5032942;28;20533;-66
2022/03/02 13:52:15;;;;;;;16.02;11.57;;;;;;;;;;5032433;28;20065;-66
2022/03/02 13:54:41;;;;;;;15.68;11.45;;;;;;;;;;5030128;28;20037;-66
2022/03/02 13:57:17;;;;;;;17.90;13.88;;;;;;;;;;5029847;28;20394;-66
2022/03/02 13:59:43;;;;;;;15.68;11.93;;;;;;;;;;5031480;28;20139;-66
2022/03/02 14:02:09;;;;;;;16.95;11.52;;;;;;;;;;5032656;28;20116;-70
2022/03/02 14:04:35;;;;;;;13.82;11.35;;;;;;;;;;5032916;28;20029;-71
2022/03/02 14:07:04;;;;;;;15.07;11.73;;;;;;;;;;5033032;28;20064;-70
2022/03/02 14:09:30;;;;;;;18.23;11.43;;;;;;;;;;5032841;28;20120;-71
2022/03/02 14:11:58;;;;;;;17.30;12.32;;;;;;;;;;5032996;28;20053;-66
2022/03/02 14:14:25;;;;;;;15.45;11.88;;;;;;;;;;5032806;28;20449;-70
2022/03/02 14:16:51;;;;;;;17.60;12.10;;;;;;;;;;5032524;28;20034;-72
2022/03/02 14:19:17;;;;;;;14.52;11.65;;;;;;;;;;5032403;28;20041;-65
2022/03/02 14:22:00;;;;;;;15.75;10.80;;;;;;;;;;5032787;28;20037;-74
2022/03/02 14:24:28;;;;;;;15.65;11.75;;;;;;;;;;5032582;28;20108;-65
2022/03/02 14:27:14;;;;;;;18.15;11.80;;;;;;;;;;5032483;28;20103;-66
2022/03/02 14:29:41;;;;;;;21.92;11.77;;;;;;;;;;5032613;28;20482;-66
2022/03/02 14:32:10;;;;;;;16.40;12.80;;;;;;;;;;5031910;28;20105;-66
2022/03/02 14:34:45;;;;;;;16.08;12.82;;;;;;;;;;5031729;28;20033;-65
2022/03/02 14:37:16;;;;;;;15.90;12.48;;;;;;;;;;5029268;28;20390;-65
2022/03/02 14:40:01;;;;;;;14.07;11.27;;;;;;;;;;5031648;28;20075;-65
2022/03/02 14:42:28;;;;;;;18.38;11.77;;;;;;;;;;5031838;28;20026;-65
2022/03/02 14:45:06;;;;;;;17.20;10.57;;;;;;;;;;5032106;28;20033;-66
2022/03/02 14:47:32;;;;;;;15.63;11.15;;;;;;;;;;5029889;28;20083;-66
2022/03/02 14:49:58;;;;;;;15.32;11.90;;;;;;;;;;5032216;28;20087;-65
2022/03/02 14:52:32;;;;;;;14.52;11.27;;;;;;;;;;5031902;28;20060;-65
2022/03/02 14:54:58;;;;;;;13.07;10.73;;;;;;;;;;5030330;28;20100;-65
2022/03/02 14:57:24;;;;;;;15.65;12.18;;;;;;;;;;5030784;28;20033;-66
2022/03/02 14:59:51;;;;;;;15.77;11.20;;;;;;;;;;5032151;28;20478;-66
2022/03/02 15:02:17;;;;;;;13.55;10.75;;;;;;;;;;5031991;28;20029;-66
2022/03/02 15:04:59;;;;;;;14.70;11.38;;;;;;;;;;5031270;28;20052;-65
2022/03/02 15:07:39;;;;;;;15.77;11.98;;;;;;;;;;5032219;28;20084;-66
2022/03/02 15:10:06;;;;;;;16.67;11.65;;;;;;;;;;5036391;28;20037;-66
2022/03/02 15:12:37;;;;;;;15.40;11.48;;;;;;;;;;5036132;28;20124;-65
2022/03/02 15:15:11;;;;;;;18.40;10.95;;;;;;;;;;5035785;28;20474;-66
2022/03/02 15:17:37;;;;;;;16.20;11.13;;;;;;;;;;5036506;28;20033;-65
2022/03/02 15:20:06;;;;;;;20.60;11.32;;;;;;;;;;5036391;28;20041;-65
2022/03/02 15:22:32;;;;;;;14.13;11.43;;;;;;;;;;5036418;28;20064;-66
2022/03/02 15:25:00;;;;;;;16.67;11.43;;;;;;;;;;5036389;28;20044;-65
2022/03/02 15:27:28;;;;;;;13.75;10.82;;;;;;;;;;5036375;28;20057;-65
2022/03/02 15:29:55;;;;;;;16.33;10.55;;;;;;;;;;5036174;28;20386;-65
2022/03/02 15:32:32;;;;;;;16.17;12.02;;;;;;;;;;5036096;28;20041;-65
2022/03/02 15:35:01;;;;;;;17.63;11.90;;;;;;;;;;5036171;28;20041;-66
2022/03/02 15:37:32;;;;;;;20.52;11.70;;;;;;;;;;5036185;28;20065;-64
2022/03/02 15:39:59;;;;;;;20.33;11.20;;;;;;;;;;5035950;28;20038;-65
2022/03/02 15:42:31;;;;;;;14.48;11.18;;;;;;;;;;5035995;28;20030;-65
2022/03/02 15:45:01;;;;;;;19.45;12.02;;;;;;;;;;5036249;28;20041;-65
2022/03/02 15:47:30;;;;;;;18.77;11.80;;;;;;;;;;5036040;28;20076;-65
2022/03/02 15:49:57;;;;;;;16.38;11.48;;;;;;;;;;5036102;28;20079;-65
2022/03/02 15:52:39;;;;;;;17.57;11.40;;;;;;;;;;5035955;28;20029;-65
2022/03/02 15:55:06;;;;;;;15.68;12.63;;;;;;;;;;5035572;28;20033;-65
2022/03/02 15:57:32;;;;;;;15.63;11.30;;;;;;;;;;5035893;28;20029;-65
2022/03/02 16:00:11;;;;;;;13.97;11.23;;;;;;;;;;5035554;28;20052;-65
2022/03/02 16:02:38;;;;;;;16.30;10.80;;;;;;;;;;5035590;28;20030;-66
2022/03/02 16:05:06;;;;;;;17.77;10.70;;;;;;;;;;5033952;28;20037;-64
2022/03/02 16:07:33;;;;;;;16.07;10.53;;;;;;;;;;5034094;28;20556;-64
2022/03/02 16:09:59;;;;;;;14.13;10.38;;;;;;;;;;5033739;28;20083;-74
2022/03/02 16:12:40;;;;;;;14.47;10.37;;;;;;;;;;5034857;28;20049;-65
2022/03/02 16:15:07;;;;;;;13.73;10.53;;;;;;;;;;5035184;28;20029;-65
2022/03/02 16:17:51;;;;;;;14.52;10.93;;;;;;;;;;5035148;28;20056;-64
2022/03/02 16:20:22;;;;;;;14.13;10.50;;;;;;;;;;5034230;28;20053;-64
2022/03/02 16:22:49;;;;;;;16.10;11.43;;;;;;;;;;5035003;28;20041;-64
2022/03/02 16:25:18;;;;;;;15.23;11.37;;;;;;;;;;5034649;28;20045;-64
2022/03/02 16:27:55;;;;;;;12.40;10.20;;;;;;;;;;5034766;28;20467;-64
2022/03/02 16:30:22;;;;;;;24.47;10.43;;;;;;;;;;5035018;28;20398;-64
2022/03/02 16:32:49;;;;;;;13.70;11.20;;;;;;;;;;5034514;28;20037;-63
2022/03/02 16:35:17;;;;;;;15.65;10.93;;;;;;;;;;5034342;28;20041;-64
2022/03/02 16:37:45;;;;;;;15.77;10.67;;;;;;;;;;5034252;28;20150;-64
2022/03/02 16:40:13;;;;;;;15.47;10.93;;;;;;;;;;5034471;28;20061;-64
2022/03/02 16:42:39;;;;;;;16.50;11.77;;;;;;;;;;5034647;28;20032;-64
2022/03/02 16:45:05;;;;;;;17.13;11.47;;;;;;;;;;5034661;28;20039;-65
2022/03/02 16:47:31;;;;;;;16.23;11.53;;;;;;;;;;5034543;28;20038;-64
2022/03/02 16:49:57;;;;;;;15.80;11.07;;;;;;;;;;5034613;28;20116;-64
2022/03/02 16:52:24;;;;;;;13.57;10.10;;;;;;;;;;5034909;28;20041;-64
2022/03/02 16:54:51;;;;;;;14.27;10.73;;;;;;;;;;5034578;28;20033;-64
2022/03/02 16:57:17;;;;;;;17.40;12.17;;;;;;;;;;5034161;28;20081;-64
2022/03/02 16:59:43;;;;;;;17.57;12.87;;;;;;;;;;5034227;28;20041;-64
2022/03/02 17:02:09;;;;;;;16.93;12.47;;;;;;;;;;5034120;28;20048;-71
2022/03/02 17:04:35;;;;;;;18.23;13.77;;;;;;;;;;5033884;28;20034;-65
2022/03/02 17:07:01;;;;;;;19.00;11.77;;;;;;;;;;5034138;28;20037;-64
2022/03/02 17:09:28;;;;;;;20.67;12.37;;;;;;;;;;5034396;28;20406;-76
2022/03/02 17:11:54;;;;;;;18.93;12.57;;;;;;;;;;5034183;28;20053;-65
2022/03/02 17:14:20;;;;;;;17.00;12.47;;;;;;;;;;5034259;28;20037;-64
2022/03/02 17:16:47;;;;;;;19.23;12.87;;;;;;;;;;5033855;28;20041;-76
2022/03/02 17:19:13;;;;;;;24.20;15.33;;;;;;;;;;5034542;28;20041;-64
2022/03/02 17:21:39;;;;;;;20.90;15.10;;;;;;;;;;5034667;28;20381;-64